Time;durP1;ratioP1;P1;durP2;ratioP2;P2;SDS_P1;SDS_P2;PMS_P1;PMS_P2;Temp;Humidity;BMP_temperature;BMP_pressure;BME280_temperature;BME280_humidity;BME280_pressure;Samples;Min_cycle;Max_cycle;Signal;HPM_P1;HPM_P2
2022/07/13 00:01:23;;;;;;;2.17;1.30;;;;;;;20.93;100.00;99675.91;4988427;28;20203;-79
2022/07/13 00:03:52;;;;;;;3.25;1.20;;;;;;;21.10;100.00;99677.78;4991595;28;20287;-79
2022/07/13 00:06:20;;;;;;;2.10;1.15;;;;;;;21.15;100.00;99673.63;4988941;28;20222;-79
2022/07/13 00:08:48;;;;;;;1.60;1.20;;;;;;;21.22;100.00;99676.53;4985351;28;20196;-79
2022/07/13 00:11:18;;;;;;;1.20;1.10;;;;;;;21.35;100.00;99677.06;4969783;28;20204;-79
2022/07/13 00:13:46;;;;;;;1.13;1.00;;;;;;;21.12;100.00;99684.69;4937554;28;20191;-79
2022/07/13 00:16:17;;;;;;;3.30;1.15;;;;;;;21.12;100.00;99686.53;4969758;28;20271;-80
2022/07/13 00:18:45;;;;;;;1.90;1.20;;;;;;;21.28;100.00;99681.34;4969841;28;20301;-80
2022/07/13 00:21:13;;;;;;;1.55;1.20;;;;;;;21.41;100.00;99675.56;4966473;28;20710;-79
2022/07/13 00:23:42;;;;;;;1.45;1.10;;;;;;;21.43;100.00;99674.44;4965839;28;20191;-79
2022/07/13 00:26:10;;;;;;;3.25;1.30;;;;;;;21.63;100.00;99661.63;4973402;28;20213;-79
2022/07/13 00:28:40;;;;;;;2.22;1.45;;;;;;;21.45;100.00;99655.41;4973223;28;20345;-79
2022/07/13 00:31:10;;;;;;;5.35;1.20;;;;;;;21.51;100.00;99652.06;4987215;28;20259;-79
2022/07/13 00:33:38;;;;;;;1.83;1.20;;;;;;;21.39;100.00;99640.69;4988852;28;20202;-79
2022/07/13 00:36:09;;;;;;;4.10;1.20;;;;;;;21.46;100.00;99632.84;4991429;28;20268;-79
2022/07/13 00:38:38;;;;;;;1.38;1.10;;;;;;;21.62;100.00;99634.81;4981735;28;20254;-78
2022/07/13 00:41:08;;;;;;;1.98;1.10;;;;;;;21.50;100.00;99638.75;4968208;28;20200;-79
2022/07/13 00:43:36;;;;;;;1.10;1.00;;;;;;;21.51;100.00;99646.69;4964454;28;20226;-80
2022/07/13 00:46:06;;;;;;;1.20;1.10;;;;;;;21.43;100.00;99649.34;4968276;28;20327;-79
2022/07/13 00:48:35;;;;;;;1.45;1.20;;;;;;;21.39;100.00;99658.72;4971750;28;20210;-79
2022/07/13 00:51:03;;;;;;;2.25;1.60;;;;;;;21.13;100.00;99651.41;4969522;28;20192;-79
2022/07/13 00:53:32;;;;;;;3.53;1.50;;;;;;;20.94;100.00;99647.97;4961914;28;20203;-79
2022/07/13 00:56:02;;;;;;;1.65;1.33;;;;;;;21.06;100.00;99647.59;4969357;28;20200;-80
2022/07/13 00:58:31;;;;;;;1.42;1.33;;;;;;;21.00;100.00;99652.75;4965738;28;20223;-79
2022/07/13 01:00:59;;;;;;;1.63;1.40;;;;;;;20.66;100.00;99642.63;4983111;28;20363;-79
2022/07/13 01:03:29;;;;;;;3.80;1.60;;;;;;;20.62;100.00;99640.38;4992976;28;20203;-79
2022/07/13 01:05:58;;;;;;;3.40;1.50;;;;;;;20.44;100.00;99649.25;4987998;28;20693;-78
2022/07/13 01:08:27;;;;;;;2.00;1.40;;;;;;;20.63;100.00;99631.31;4984584;28;20199;-80
2022/07/13 01:10:55;;;;;;;2.78;1.60;;;;;;;20.58;100.00;99631.78;4987995;28;20195;-79
2022/07/13 01:13:23;;;;;;;4.50;1.70;;;;;;;20.62;100.00;99635.84;4986590;28;20278;-80
2022/07/13 01:15:52;;;;;;;2.43;1.80;;;;;;;20.67;100.00;99636.25;4986612;28;20211;-79
2022/07/13 01:18:22;;;;;;;2.60;1.60;;;;;;;20.58;100.00;99635.31;4990784;28;20199;-79
2022/07/13 01:20:52;;;;;;;4.03;1.50;;;;;;;20.72;100.00;99636.63;4987978;28;20191;-79
2022/07/13 01:23:22;;;;;;;2.90;1.50;;;;;;;20.84;100.00;99646.22;4986673;28;20278;-79
2022/07/13 01:25:50;;;;;;;3.53;1.60;;;;;;;20.83;100.00;99638.25;4986265;28;20226;-80
2022/07/13 01:28:18;;;;;;;3.38;1.50;;;;;;;20.74;100.00;99636.47;4991392;28;20191;-79
2022/07/13 01:30:47;;;;;;;3.08;1.90;;;;;;;20.70;100.00;99645.88;4986572;28;20203;-80
2022/07/13 01:33:15;;;;;;;4.18;1.80;;;;;;;20.72;100.00;99643.84;4990536;28;20207;-79
2022/07/13 01:35:43;;;;;;;2.03;1.83;;;;;;;20.62;100.00;99637.69;4990415;28;20274;-79
2022/07/13 01:38:11;;;;;;;3.25;1.98;;;;;;;20.49;100.00;99632.66;4990335;28;20233;-80
2022/07/13 01:40:41;;;;;;;2.83;1.80;;;;;;;20.57;100.00;99639.00;4982864;28;20207;-79
2022/07/13 01:43:10;;;;;;;3.43;1.90;;;;;;;20.68;100.00;99637.94;4990461;28;20203;-80
2022/07/13 01:45:38;;;;;;;4.03;2.03;;;;;;;20.66;100.00;99639.09;4982381;28;20234;-79
2022/07/13 01:48:07;;;;;;;3.10;1.60;;;;;;;20.83;100.00;99627.50;4990243;28;20203;-80
2022/07/13 01:50:35;;;;;;;6.00;2.50;;;;;;;20.78;100.00;99616.34;4987541;28;20370;-80
2022/07/13 01:53:04;;;;;;;3.65;1.95;;;;;;;20.75;100.00;99616.63;4990314;28;20277;-79
2022/07/13 01:55:34;;;;;;;3.50;1.88;;;;;;;20.76;100.00;99623.72;4992484;28;20196;-79
2022/07/13 01:58:04;;;;;;;6.00;1.90;;;;;;;20.86;100.00;99611.03;4985986;28;20295;-80
2022/07/13 02:00:33;;;;;;;4.20;1.90;;;;;;;20.73;100.00;99615.94;4979277;28;20195;-79
2022/07/13 02:03:03;;;;;;;3.70;1.67;;;;;;;20.81;100.00;99607.94;4981337;28;20215;-79
2022/07/13 02:05:32;;;;;;;3.75;2.03;;;;;;;20.74;100.00;99605.00;4986056;28;20247;-79
2022/07/13 02:08:00;;;;;;;2.50;1.60;;;;;;;20.87;100.00;99596.56;4990223;28;20658;-80
2022/07/13 02:10:35;;;;;;;3.15;1.80;;;;;;;20.71;100.00;99601.78;4989990;28;20210;-79
2022/07/13 02:13:07;;;;;;;3.22;1.65;;;;;;;20.68;100.00;99602.94;4990242;28;20207;-79
2022/07/13 02:15:36;;;;;;;2.73;1.80;;;;;;;20.51;100.00;99596.53;4987463;28;20218;-79
2022/07/13 02:18:05;;;;;;;1.88;1.70;;;;;;;20.66;100.00;99604.94;4985788;28;20219;-80
2022/07/13 02:20:33;;;;;;;3.92;2.08;;;;;;;20.62;100.00;99600.84;4989180;28;20206;-79
2022/07/13 02:23:02;;;;;;;3.43;1.90;;;;;;;20.65;100.00;99602.38;4989797;28;20201;-79
2022/07/13 02:25:30;;;;;;;4.10;1.80;;;;;;;20.29;100.00;99604.97;4991268;28;20306;-79
2022/07/13 02:27:58;;;;;;;6.00;2.25;;;;;;;20.43;100.00;99598.28;4988929;28;20203;-79
2022/07/13 02:30:28;;;;;;;5.60;2.10;;;;;;;20.42;100.00;99594.69;4992940;28;20204;-80
2022/07/13 02:32:57;;;;;;;3.45;1.95;;;;;;;20.26;100.00;99606.09;4993197;28;20203;-79
2022/07/13 02:35:26;;;;;;;3.20;1.70;;;;;;;19.91;100.00;99608.66;4993129;28;20743;-79
2022/07/13 02:37:54;;;;;;;3.37;2.10;;;;;;;19.95;100.00;99602.00;4985908;28;20367;-79
2022/07/13 02:40:22;;;;;;;4.13;2.10;;;;;;;19.98;100.00;99601.72;4988278;28;20278;-79
2022/07/13 02:42:50;;;;;;;3.73;2.13;;;;;;;20.17;100.00;99590.00;4985776;28;20203;-79
2022/07/13 02:45:19;;;;;;;3.13;1.88;;;;;;;20.19;100.00;99602.34;4996014;28;20417;-79
2022/07/13 02:47:49;;;;;;;3.58;1.83;;;;;;;20.06;100.00;99603.66;4993363;28;20218;-79
2022/07/13 02:50:17;;;;;;;3.60;2.07;;;;;;;20.16;100.00;99604.44;4997456;28;20199;-79
2022/07/13 02:52:47;;;;;;;2.47;1.70;;;;;;;20.33;100.00;99600.13;4993079;28;20198;-79
2022/07/13 02:55:15;;;;;;;2.03;1.40;;;;;;;20.54;100.00;99598.91;4992833;28;20191;-79
2022/07/13 02:57:45;;;;;;;2.50;1.50;;;;;;;20.32;100.00;99593.91;4992917;28;20210;-79
2022/07/13 03:00:15;;;;;;;2.60;1.43;;;;;;;20.25;100.00;99592.81;4988448;28;20206;-80
2022/07/13 03:02:43;;;;;;;1.90;1.40;;;;;;;20.04;100.00;99593.03;4989321;28;20614;-80
2022/07/13 03:05:13;;;;;;;2.50;1.50;;;;;;;20.02;100.00;99600.41;4989391;28;20214;-80
2022/07/13 03:07:41;;;;;;;2.37;1.50;;;;;;;19.99;100.00;99592.66;4992599;28;20245;-79
2022/07/13 03:10:10;;;;;;;3.73;2.00;;;;;;;19.99;100.00;99593.50;4989898;28;20226;-80
2022/07/13 03:12:38;;;;;;;3.00;1.70;;;;;;;20.17;100.00;99590.00;4992684;28;20202;-80
2022/07/13 03:15:09;;;;;;;1.67;1.50;;;;;;;20.23;100.00;99584.03;4991482;28;20192;-79
2022/07/13 03:17:37;;;;;;;2.17;1.70;;;;;;;19.99;100.00;99582.75;4992353;28;20271;-79
2022/07/13 03:20:06;;;;;;;2.77;1.73;;;;;;;19.90;100.00;99590.84;4986221;28;20199;-79
2022/07/13 03:22:36;;;;;;;3.43;1.57;;;;;;;19.87;100.00;99588.44;4989617;28;20295;-79
2022/07/13 03:25:06;;;;;;;2.23;1.43;;;;;;;19.73;100.00;99589.75;4991679;28;20210;-79
2022/07/13 03:27:34;;;;;;;2.60;1.50;;;;;;;19.83;100.00;99589.72;4999101;28;20223;-79
2022/07/13 03:30:03;;;;;;;2.13;1.47;;;;;;;19.72;100.00;99593.44;4991129;28;20191;-79
2022/07/13 03:32:31;;;;;;;4.50;1.70;;;;;;;19.92;100.00;99592.38;4995059;28;20214;-80
2022/07/13 03:34:59;;;;;;;4.30;1.80;;;;;;;19.86;100.00;99592.13;4992352;28;20241;-79
2022/07/13 03:37:28;;;;;;;3.10;1.50;;;;;;;19.85;100.00;99588.59;4988140;28;20231;-79
2022/07/13 03:39:58;;;;;;;2.57;1.53;;;;;;;19.92;100.00;99587.00;4992230;28;20198;-79
2022/07/13 03:42:26;;;;;;;1.93;1.60;;;;;;;19.84;100.00;99591.44;4987063;28;20218;-79
2022/07/13 03:44:55;;;;;;;2.30;1.40;;;;;;;19.96;100.00;99583.03;4990783;28;20203;-79
2022/07/13 03:47:23;;;;;;;2.75;1.73;;;;;;;19.84;100.00;99589.56;4985847;28;20278;-79
2022/07/13 03:49:51;;;;;;;2.77;1.57;;;;;;;19.98;100.00;99589.13;4988243;28;20206;-79
2022/07/13 03:52:21;;;;;;;3.40;1.47;;;;;;;19.90;100.00;99586.31;4989661;28;20215;-80
2022/07/13 03:54:49;;;;;;;3.90;1.50;;;;;;;19.90;100.00;99586.31;4985955;28;20210;-79
2022/07/13 03:57:19;;;;;;;2.93;1.70;;;;;;;19.81;100.00;99597.09;4991898;28;20642;-79
2022/07/13 03:59:48;;;;;;;3.65;1.95;;;;;;;19.78;100.00;99603.59;4987701;28;20245;-79
2022/07/13 04:02:16;;;;;;;2.53;1.70;;;;;;;19.65;100.00;99597.69;4983324;28;20204;-79
2022/07/13 04:04:46;;;;;;;3.43;1.50;;;;;;;19.72;100.00;99588.06;4990490;28;20211;-80
2022/07/13 04:07:15;;;;;;;2.33;1.60;;;;;;;19.80;100.00;99590.03;4991459;28;20226;-79
2022/07/13 04:09:43;;;;;;;2.93;1.73;;;;;;;19.93;100.00;99587.84;4991664;28;20702;-80
2022/07/13 04:12:11;;;;;;;3.23;1.47;;;;;;;19.93;100.00;99588.69;4991731;28;20214;-79
2022/07/13 04:14:41;;;;;;;3.33;1.70;;;;;;;20.00;100.00;99578.22;4990575;28;20199;-79
2022/07/13 04:17:10;;;;;;;2.63;1.60;;;;;;;20.05;100.00;99572.38;4988763;28;20206;-79
2022/07/13 04:19:38;;;;;;;6.53;1.53;;;;;;;20.00;100.00;99567.44;4991878;28;20199;-79
2022/07/13 04:22:06;;;;;;;1.77;1.53;;;;;;;19.78;100.00;99563.28;4991783;28;20222;-79
2022/07/13 04:24:35;;;;;;;3.20;1.40;;;;;;;19.94;100.00;99568.03;4991426;28;20199;-79
2022/07/13 04:27:03;;;;;;;1.50;1.40;;;;;;;19.92;100.00;99568.19;4995692;28;20227;-79
2022/07/13 04:29:31;;;;;;;2.07;1.27;;;;;;;20.02;100.00;99560.91;4986744;28;20196;-79
2022/07/13 04:32:00;;;;;;;1.70;1.60;;;;;;;20.12;100.00;99571.63;4991569;28;20199;-79
2022/07/13 04:34:29;;;;;;;1.60;1.43;;;;;;;20.04;100.00;99578.75;4986992;28;20207;-79
2022/07/13 04:36:57;;;;;;;2.17;1.40;;;;;;;20.18;100.00;99581.81;4991301;28;20263;-79
2022/07/13 04:39:27;;;;;;;1.73;1.30;;;;;;;20.13;100.00;99573.31;4973249;28;20199;-79
2022/07/13 04:41:55;;;;;;;1.43;1.33;;;;;;;20.19;100.00;99566.53;4991114;28;20195;-79
2022/07/13 04:44:25;;;;;;;1.30;1.20;;;;;;;19.91;100.00;99565.66;4990235;28;20199;-79
2022/07/13 04:46:54;;;;;;;3.20;1.67;;;;;;;20.14;100.00;99574.19;4991057;28;20223;-79
2022/07/13 04:49:24;;;;;;;1.67;1.40;;;;;;;20.13;100.00;99573.31;4983946;28;20214;-79
2022/07/13 04:51:52;;;;;;;1.50;1.40;;;;;;;20.14;100.00;99563.41;4987182;28;20588;-79
2022/07/13 04:54:22;;;;;;;2.10;1.77;;;;;;;20.16;100.00;99562.25;4991147;28;20195;-79
2022/07/13 04:56:50;;;;;;;2.67;1.30;;;;;;;20.13;100.00;99569.78;4988273;28;20282;-79
2022/07/13 04:59:19;;;;;;;12.87;2.20;;;;;;;20.07;100.00;99565.00;4984416;28;20211;-79
2022/07/13 05:01:47;;;;;;;10.37;1.83;;;;;;;20.25;100.00;99565.91;4988175;28;20226;-79
2022/07/13 05:04:15;;;;;;;6.37;1.87;;;;;;;20.01;100.00;99564.63;4988060;28;20195;-79
2022/07/13 05:06:45;;;;;;;6.07;1.60;;;;;;;20.11;100.00;99561.88;4984292;28;20230;-79
2022/07/13 05:09:13;;;;;;;7.20;1.80;;;;;;;20.15;100.00;99570.47;4990943;28;20479;-79
2022/07/13 05:11:42;;;;;;;7.73;1.73;;;;;;;19.95;100.00;99561.66;4987106;28;20209;-79
2022/07/13 05:14:10;;;;;;;5.50;1.60;;;;;;;20.14;100.00;99563.41;4983822;28;20196;-79
2022/07/13 05:16:38;;;;;;;2.83;1.50;;;;;;;20.27;100.00;99563.94;4992740;28;20203;-79
2022/07/13 05:19:07;;;;;;;2.47;1.23;;;;;;;20.32;100.00;99569.69;4991053;28;20229;-79
2022/07/13 05:21:35;;;;;;;1.40;1.30;;;;;;;20.47;100.00;99560.16;4987305;28;20199;-79
2022/07/13 05:24:05;;;;;;;1.63;1.40;;;;;;;20.48;100.00;99555.63;4990912;28;20233;-80
2022/07/13 05:26:34;;;;;;;1.70;1.27;;;;;;;20.65;100.00;99565.53;4992665;28;20309;-79
2022/07/13 05:29:04;;;;;;;2.53;1.60;;;;;;;20.65;100.00;99570.91;4991800;28;20210;-79
2022/07/13 05:31:33;;;;;;;2.97;1.40;;;;;;;20.66;100.00;99575.34;4986953;28;20653;-80
2022/07/13 05:34:01;;;;;;;2.13;1.63;;;;;;;20.52;100.00;99573.16;4985267;28;20643;-79
2022/07/13 05:36:29;;;;;;;2.07;1.63;;;;;;;20.62;100.00;99583.84;4998067;28;20209;-79
2022/07/13 05:38:57;;;;;;;3.33;1.50;;;;;;;20.80;100.00;99582.03;4990386;28;20191;-79
2022/07/13 05:41:28;;;;;;;2.80;1.40;;;;;;;20.92;100.00;99588.03;4994964;28;20210;-79
2022/07/13 05:43:56;;;;;;;3.67;2.00;;;;;;;20.86;100.00;99600.28;4987768;28;20202;-79
2022/07/13 05:46:24;;;;;;;2.77;1.47;;;;;;;20.99;100.00;99594.50;4987885;28;20195;-79
2022/07/13 05:48:53;;;;;;;4.20;1.40;;;;;;;21.04;100.00;99592.19;4987832;28;20277;-79
2022/07/13 05:51:21;;;;;;;1.80;1.63;;;;;;;21.30;100.00;99593.13;4989824;28;20211;-79
2022/07/13 05:54:01;;;;;;;1.80;1.50;;;;;;;21.24;100.00;99588.34;4998194;28;20203;-79
2022/07/13 05:56:51;;;;;;;2.90;1.43;;;;;;;21.20;100.00;99591.47;4993766;28;20248;-80
2022/07/13 05:59:19;;;;;;;4.50;1.60;;;;;;;21.26;100.00;99582.78;4989701;28;20236;-79
2022/07/13 06:01:47;;;;;;;3.00;1.47;;;;;;;21.26;100.00;99586.34;4994046;28;20236;-80
2022/07/13 06:04:16;;;;;;;2.95;1.90;;;;;;;21.30;100.00;99593.13;4989961;28;20194;-79
2022/07/13 06:06:45;;;;;;;1.93;1.70;;;;;;;21.34;100.00;99582.88;4991005;28;20226;-79
2022/07/13 06:09:13;;;;;;;5.03;1.80;;;;;;;21.33;100.00;99576.66;4984944;28;20222;-79
2022/07/13 06:11:41;;;;;;;2.47;1.50;;;;;;;21.26;100.00;99572.00;4991636;28;20195;-79
2022/07/13 06:14:11;;;;;;;3.57;1.60;;;;;;;21.34;100.00;99569.41;4989575;28;20202;-80
2022/07/13 06:16:40;;;;;;;2.53;1.37;;;;;;;21.32;100.00;99577.63;4993559;28;20206;-80
2022/07/13 06:19:08;;;;;;;3.53;1.57;;;;;;;21.56;100.00;99560.81;4993595;28;20195;-80
2022/07/13 06:21:36;;;;;;;2.83;1.80;;;;;;;21.51;100.00;99562.25;4995176;28;20226;-79
2022/07/13 06:24:05;;;;;;;2.40;1.77;;;;;;;21.63;100.00;99556.47;4993461;28;20191;-79
2022/07/13 06:26:33;;;;;;;2.50;1.50;;;;;;;21.58;100.00;99556.09;4993026;28;20215;-79
2022/07/13 06:29:02;;;;;;;2.00;1.60;;;;;;;21.73;100.00;99563.59;4993615;28;20222;-80
2022/07/13 06:31:32;;;;;;;3.47;1.53;;;;;;;21.81;100.00;99556.41;4993104;28;20223;-80
2022/07/13 06:34:00;;;;;;;2.07;1.70;;;;;;;21.89;100.00;99563.69;4993305;28;20323;-79
2022/07/13 06:36:28;;;;;;;2.33;1.80;;;;;;;22.00;100.00;99568.78;4995323;28;20203;-80
2022/07/13 06:38:56;;;;;;;1.95;1.50;;;;;;;22.04;100.00;99567.47;4987498;28;20200;-79
2022/07/13 06:41:25;;;;;;;3.73;1.70;;;;;;;22.09;100.00;99564.31;4993096;28;20223;-79
2022/07/13 06:43:53;;;;;;;2.33;1.63;;;;;;;21.79;100.00;99560.25;4989430;28;20203;-80
2022/07/13 06:46:22;;;;;;;2.67;1.90;;;;;;;21.92;100.00;99557.97;4988005;28;20192;-80
2022/07/13 06:48:55;;;;;;;4.00;2.07;;;;;;;22.15;100.00;99561.81;4991608;28;20309;-79
2022/07/13 06:51:24;;;;;;;2.77;1.57;;;;;;;22.14;100.00;99562.84;4989373;28;20218;-79
2022/07/13 06:53:52;;;;;;;2.65;1.70;;;;;;;22.24;100.00;99560.84;4987646;28;20207;-79
2022/07/13 06:56:21;;;;;;;2.80;1.63;;;;;;;22.24;100.00;99562.69;4987632;28;20195;-79
2022/07/13 06:58:49;;;;;;;2.25;1.65;;;;;;;22.29;100.00;99557.63;4996125;28;20195;-79
2022/07/13 07:01:19;;;;;;;2.22;1.60;;;;;;;22.38;100.00;99562.06;4990292;28;20191;-79
2022/07/13 07:03:48;;;;;;;2.90;1.80;;;;;;;22.33;100.00;99568.97;4989654;28;20203;-79
2022/07/13 07:06:17;;;;;;;4.38;1.75;;;;;;;22.43;100.00;99559.72;4993015;28;20217;-80
2022/07/13 07:08:45;;;;;;;2.35;1.77;;;;;;;22.52;100.00;99564.16;4990036;28;20242;-79
2022/07/13 07:11:14;;;;;;;3.22;1.70;;;;;;;22.57;100.00;99556.38;4987368;28;20210;-79
2022/07/13 07:13:42;;;;;;;2.72;1.70;;;;;;;22.85;100.00;99548.88;4989775;28;20290;-79
2022/07/13 07:16:10;;;;;;;4.68;1.85;;;;;;;22.82;100.00;99557.28;4991595;28;20213;-80
2022/07/13 07:18:38;;;;;;;1.92;1.73;;;;;;;22.37;100.00;99562.22;4987609;28;20203;-79
2022/07/13 07:21:28;;;;;;;2.05;1.85;;;;;;;22.52;100.00;99566.84;4993016;28;20203;-79
2022/07/13 07:23:57;;;;;;;3.83;2.28;;;;;;;22.66;100.00;99576.16;4992719;28;20230;-79
2022/07/13 07:26:25;;;;;;;3.65;1.63;;;;;;;22.57;100.00;99569.03;4989690;28;20769;-79
2022/07/13 07:28:53;;;;;;;3.20;1.70;;;;;;;22.85;100.00;99572.34;4992265;28;20225;-79
2022/07/13 07:31:21;;;;;;;3.70;1.80;;;;;;;22.96;100.00;99563.06;4987920;28;20199;-79
2022/07/13 07:33:50;;;;;;;5.57;2.10;;;;;;;22.86;100.00;99555.09;4988750;28;20666;-79
2022/07/13 07:36:18;;;;;;;2.65;1.77;;;;;;;23.23;100.00;99559.19;4992443;28;20203;-79
2022/07/13 07:38:47;;;;;;;4.15;1.83;;;;;;;23.19;100.00;99558.69;4991938;28;20250;-80
2022/07/13 07:41:16;;;;;;;3.53;1.90;;;;;;;23.33;100.00;99554.44;4992367;28;20223;-80
2022/07/13 07:43:46;;;;;;;2.33;1.85;;;;;;;23.30;100.00;99557.50;4989209;28;20207;-80
2022/07/13 07:46:14;;;;;;;2.63;1.65;;;;;;;23.26;100.00;99557.00;4984843;28;20206;-79
2022/07/13 07:48:44;;;;;;;4.05;1.70;;;;;;;23.26;100.00;99554.31;4996377;28;20282;-80
2022/07/13 07:51:13;;;;;;;3.58;1.83;;;;;;;23.41;100.00;99541.78;4986877;28;20195;-79
2022/07/13 07:53:41;;;;;;;3.20;1.70;;;;;;;23.34;100.00;99546.16;4989510;28;20192;-79
2022/07/13 07:56:11;;;;;;;1.80;1.60;;;;;;;23.28;100.00;99541.47;4993176;28;20204;-79
2022/07/13 07:58:39;;;;;;;2.45;1.60;;;;;;;23.40;100.00;99539.25;4992045;28;20282;-79
2022/07/13 08:01:08;;;;;;;3.03;1.77;;;;;;;23.20;100.00;99548.72;4987996;28;20200;-79
2022/07/13 08:03:36;;;;;;;4.32;1.90;;;;;;;23.32;100.00;99541.94;4991735;28;20227;-79
2022/07/13 08:06:04;;;;;;;3.05;1.90;;;;;;;23.43;100.00;99541.59;4985200;28;20260;-79
2022/07/13 08:08:32;;;;;;;2.88;1.52;;;;;;;23.46;100.00;99546.69;4987925;28;20226;-79
2022/07/13 08:11:16;;;;;;;4.82;1.88;;;;;;;23.61;100.00;99544.13;4989845;28;20337;-80
2022/07/13 08:13:44;;;;;;;3.35;1.60;;;;;;;23.49;100.00;99535.50;4988737;28;20202;-79
2022/07/13 08:16:12;;;;;;;1.85;1.60;;;;;;;23.72;100.00;99538.34;4987515;28;20231;-79
2022/07/13 08:18:41;;;;;;;6.25;1.90;;;;;;;23.82;100.00;99532.75;4955642;28;20207;-79
2022/07/13 08:21:30;;;;;;;3.65;1.60;;;;;;;23.73;100.00;99534.63;4991705;28;20195;-79
2022/07/13 08:23:58;;;;;;;5.68;1.90;;;;;;;23.91;100.00;99539.81;4988803;28;20199;-79
2022/07/13 08:26:29;;;;;;;4.63;2.00;;;;;;;23.66;100.00;99529.09;4991469;28;20191;-79
2022/07/13 08:28:59;;;;;;;5.00;1.70;;;;;;;23.78;100.00;99518.75;4991239;28;20246;-79
2022/07/13 08:31:27;;;;;;;4.82;1.73;;;;;;;23.97;100.00;99521.03;4984112;28;20196;-79
2022/07/13 08:39:27;;;;;;;4.78;2.33;;;;;;;24.01;100.00;99526.09;4988837;28;20214;-79
2022/07/13 08:41:59;;;;;;;5.03;2.03;;;;;;;24.10;100.00;99525.03;4987547;28;20195;-79
2022/07/13 08:44:28;;;;;;;4.15;2.10;;;;;;;24.32;100.00;99512.59;4987342;28;20284;-79
2022/07/13 08:47:03;;;;;;;3.05;1.90;;;;;;;24.43;100.00;99520.34;4991243;28;20237;-79
2022/07/13 08:49:31;;;;;;;2.33;1.80;;;;;;;24.35;100.00;99515.81;4988296;28;20226;-79
2022/07/13 08:52:00;;;;;;;2.70;2.00;;;;;;;24.36;100.00;99527.47;4985751;28;20214;-80
2022/07/13 08:54:29;;;;;;;4.00;2.00;;;;;;;24.39;100.00;99530.66;4991278;28;20198;-80
2022/07/13 08:56:59;;;;;;;4.50;2.00;;;;;;;24.46;100.00;99517.28;4990946;28;20195;-79
2022/07/13 08:59:27;;;;;;;4.80;2.20;;;;;;;24.54;100.00;99523.50;4980897;28;20199;-79
2022/07/13 09:01:56;;;;;;;3.25;2.00;;;;;;;24.73;100.00;99521.34;4991169;28;20195;-80
2022/07/13 09:04:25;;;;;;;4.25;1.80;;;;;;;24.62;100.00;99527.16;4985817;28;20206;-79
2022/07/13 09:06:56;;;;;;;6.20;2.13;;;;;;;24.69;100.00;99522.69;4990823;28;20206;-80
2022/07/13 09:09:33;;;;;;;3.08;1.88;;;;;;;24.71;100.00;99513.38;4987402;28;20238;-80
2022/07/13 09:12:25;;;;;;;3.03;1.70;;;;;;;24.68;100.00;99524.56;4991390;28;20244;-80
2022/07/13 09:14:56;;;;;;;2.20;2.00;;;;;;;24.75;100.00;99517.41;4986850;28;20199;-79
2022/07/13 09:17:30;;;;;;;4.68;1.65;;;;;;;24.87;100.00;99512.41;4991051;28;20206;-79
2022/07/13 09:20:01;;;;;;;3.55;2.17;;;;;;;24.37;100.00;99516.47;4986360;28;20202;-80
2022/07/13 09:22:30;;;;;;;2.90;2.08;;;;;;;24.69;100.00;99520.00;4987576;28;20275;-79
2022/07/13 09:24:58;;;;;;;2.72;2.10;;;;;;;24.79;100.00;99523.31;4990214;28;20203;-79
2022/07/13 09:27:27;;;;;;;2.67;1.88;;;;;;;24.64;100.00;99517.84;4986463;28;20214;-79
2022/07/13 09:29:56;;;;;;;4.30;1.98;;;;;;;24.43;100.00;99509.50;4985656;28;20215;-79
2022/07/13 09:32:24;;;;;;;4.45;2.10;;;;;;;24.77;100.00;99501.81;4986396;28;20223;-79
2022/07/13 09:34:54;;;;;;;3.60;1.95;;;;;;;24.82;100.00;99520.25;4990629;28;20227;-79
2022/07/13 09:37:24;;;;;;;4.07;2.00;;;;;;;25.09;100.00;99525.16;4988458;28;20227;-79
2022/07/13 09:40:17;;;;;;;3.60;1.95;;;;;;;25.19;100.00;99524.03;4990435;28;20199;-79
2022/07/13 09:46:08;;;;;;;2.90;1.80;;;;;;;25.31;100.00;99523.41;4986360;28;20203;-80
2022/07/13 09:48:25;;;;;;;3.63;1.90;;;;;;;25.11;100.00;99519.53;4990101;28;20203;-79
2022/07/13 09:50:56;;;;;;;3.92;1.70;;;;;;;24.81;100.00;99516.69;4990369;28;20227;-79
2022/07/13 09:53:27;;;;;;;4.13;2.10;;;;;;;24.72;100.00;99523.19;4990259;28;20359;-79
2022/07/13 09:55:57;;;;;;;3.03;1.90;;;;;;;24.90;100.00;99514.78;4987461;28;20204;-79
2022/07/13 09:58:29;;;;;;;4.80;1.90;;;;;;;25.30;100.00;99529.03;4990222;28;20207;-79
2022/07/13 10:01:01;;;;;;;3.35;2.03;;;;;;;25.10;100.00;99526.00;4986079;28;20207;-79
2022/07/13 10:03:30;;;;;;;3.58;1.95;;;;;;;24.89;100.00;99528.47;4987182;28;20266;-79
2022/07/13 10:06:01;;;;;;;5.25;2.22;;;;;;;25.30;100.00;99527.16;4989506;28;20207;-79
2022/07/13 10:08:30;;;;;;;4.47;1.80;;;;;;;25.42;100.00;99535.69;4990358;28;20354;-80
2022/07/13 10:10:58;;;;;;;2.25;1.90;;;;;;;25.00;100.00;99533.50;4980570;28;20241;-79
2022/07/13 10:13:29;;;;;;;3.38;2.30;;;;;;;24.92;100.00;99533.56;4984896;28;20206;-79
2022/07/13 10:15:57;;;;;;;6.38;2.17;;;;;;;25.00;100.00;99528.91;4985263;28;20612;-79
2022/07/13 10:18:33;;;;;;;3.90;2.10;;;;;;;25.41;100.00;99534.00;4985573;28;20199;-79
2022/07/13 10:21:10;;;;;;;3.72;1.95;;;;;;;25.75;100.00;99522.66;4987746;28;20199;-79
2022/07/13 10:23:40;;;;;;;4.78;2.28;;;;;;;25.87;100.00;99515.75;4984483;28;20278;-80
2022/07/13 10:26:21;;;;;;;5.13;2.28;;;;;;;26.19;100.00;99510.94;4987997;28;20195;-79
2022/07/13 10:29:05;;;;;;;5.78;2.20;;;;;;;25.92;100.00;99507.84;4986068;28;20195;-79
2022/07/13 10:31:36;;;;;;;4.22;1.90;;;;;;;26.13;100.00;99506.25;4987101;28;20529;-79
2022/07/13 10:34:07;;;;;;;4.03;2.03;;;;;;;26.28;100.00;99506.22;4990072;28;20732;-80
2022/07/13 10:36:56;;;;;;;5.40;2.08;;;;;;;26.49;98.90;99511.72;4989653;28;20195;-79
2022/07/13 10:39:26;;;;;;;6.38;2.25;;;;;;;26.53;99.49;99510.28;4993145;28;20211;-79
2022/07/13 10:42:03;;;;;;;6.15;1.98;;;;;;;26.60;98.03;99504.94;4990401;28;20203;-79
2022/07/13 10:44:38;;;;;;;2.72;2.03;;;;;;;26.68;97.24;99508.38;4987984;28;20572;-79
2022/07/13 10:47:07;;;;;;;3.00;2.00;;;;;;;26.33;97.40;99517.34;4993004;28;20212;-79
2022/07/13 10:49:47;;;;;;;5.22;2.22;;;;;;;26.13;98.85;99514.38;4993090;28;20206;-79
2022/07/13 10:52:49;;;;;;;2.88;2.05;;;;;;;26.51;96.57;99506.94;4993282;28;20203;-79
2022/07/13 10:55:45;;;;;;;4.38;1.90;;;;;;;26.56;95.49;99504.50;4993026;28;20207;-80
2022/07/13 10:58:43;;;;;;;2.83;2.10;;;;;;;26.63;94.83;99501.81;4987316;28;20230;-80
2022/07/13 11:01:50;;;;;;;4.75;2.10;;;;;;;26.75;92.60;99503.03;4984438;28;20226;-80
2022/07/13 11:04:20;;;;;;;3.85;1.88;;;;;;;26.92;93.51;99498.97;4988708;28;20207;-79
2022/07/13 11:07:08;;;;;;;7.68;2.30;;;;;;;27.08;88.88;99497.91;4992798;28;20199;-79
2022/07/13 11:09:38;;;;;;;3.20;1.90;;;;;;;27.23;87.73;99495.09;4988948;28;20675;-80
2022/07/13 11:12:21;;;;;;;2.97;1.70;;;;;;;27.27;86.62;99494.50;4987631;28;20398;-80
2022/07/13 11:14:52;;;;;;;4.70;2.05;;;;;;;27.34;86.01;99484.53;4985980;28;20207;-79
2022/07/13 11:17:24;;;;;;;2.60;1.65;;;;;;;27.72;82.44;99480.59;4984558;28;20222;-80
2022/07/13 11:20:01;;;;;;;3.25;1.90;;;;;;;27.76;82.42;99482.72;4968509;28;20195;-79
2022/07/13 11:25:32;;;;;;;3.60;2.20;;;;;;;28.04;79.77;99473.63;4991686;28;20203;-80
2022/07/13 11:28:06;;;;;;;3.58;1.75;;;;;;;28.16;79.34;99466.53;4992121;28;20191;-80
2022/07/13 11:30:36;;;;;;;5.05;1.67;;;;;;;28.52;77.09;99469.00;4986081;28;20223;-80
2022/07/13 11:33:12;;;;;;;3.67;1.60;;;;;;;27.87;79.08;99464.97;4992361;28;20285;-79
2022/07/13 11:35:46;;;;;;;4.80;1.65;;;;;;;28.48;74.76;99454.94;4985812;28;20203;-80
2022/07/13 11:38:16;;;;;;;3.90;1.70;;;;;;;28.67;72.37;99457.91;4987474;28;20242;-80
2022/07/13 11:40:45;;;;;;;3.88;1.75;;;;;;;29.01;68.57;99452.28;4987630;28;20199;-80
2022/07/13 11:43:13;;;;;;;3.83;1.55;;;;;;;29.02;66.96;99447.66;4989335;28;20206;-77
2022/07/13 11:45:43;;;;;;;4.00;1.50;;;;;;;29.71;63.05;99440.84;4983957;28;20286;-79
2022/07/13 11:48:15;;;;;;;3.88;1.90;;;;;;;30.01;60.14;99442.00;4995183;28;20263;-80
2022/07/13 11:50:45;;;;;;;3.50;1.77;;;;;;;30.28;58.70;99434.53;4992033;28;20230;-80
2022/07/13 11:53:28;;;;;;;3.25;1.50;;;;;;;30.43;57.78;99426.88;4990619;28;20209;-80